createdAt,value
2023-04-02T00:01:55.501Z,22.63
2023-04-02T00:05:55.491Z,22.62
2023-04-02T00:09:55.415Z,22.62
2023-04-02T00:13:55.486Z,22.62
2023-04-02T00:17:55.325Z,22.62
2023-04-02T00:21:55.277Z,22.61
2023-04-02T00:25:55.224Z,22.61
2023-04-02T00:29:55.289Z,22.61
2023-04-02T00:33:55.476Z,22.61
2023-04-02T00:37:55.329Z,22.60
2023-04-02T00:41:55.484Z,22.60
2023-04-02T00:45:55.556Z,22.60
2023-04-02T00:49:55.345Z,22.59
2023-04-02T00:53:55.509Z,22.59
2023-04-02T00:57:55.398Z,22.59
2023-04-02T01:01:55.477Z,22.59
2023-04-02T01:05:55.526Z,22.58
2023-04-02T01:09:56.028Z,22.58
2023-04-02T01:13:55.621Z,22.58
2023-04-02T01:17:56.025Z,22.57
2023-04-02T01:21:55.644Z,22.57
2023-04-02T01:25:55.659Z,22.57
2023-04-02T01:29:55.730Z,22.57
2023-04-02T01:33:55.746Z,22.56
2023-04-02T01:37:56.018Z,22.56
2023-04-02T01:41:55.798Z,22.56
2023-04-02T01:45:55.839Z,22.56
2023-04-02T01:49:55.989Z,22.56
2023-04-02T01:53:55.889Z,22.56
2023-04-02T01:57:56.049Z,22.56
2023-04-02T02:01:55.929Z,22.55
2023-04-02T02:05:55.888Z,22.55
2023-04-02T02:09:56.036Z,22.55
2023-04-02T02:13:55.834Z,22.55
2023-04-02T02:17:56.051Z,22.54
2023-04-02T02:21:56.532Z,22.54
2023-04-02T02:25:55.693Z,22.54
2023-04-02T02:29:55.687Z,22.53
2023-04-02T02:33:55.635Z,22.53
2023-04-02T02:37:55.696Z,22.54
2023-04-02T02:41:56.034Z,22.53
2023-04-02T02:45:55.544Z,22.53
2023-04-02T02:49:55.458Z,22.53
2023-04-02T02:53:55.427Z,22.53
2023-04-02T02:57:55.554Z,22.52
2023-04-02T03:01:55.338Z,22.52
2023-04-02T03:05:55.536Z,22.52
2023-04-02T03:09:55.293Z,22.52
2023-04-02T03:13:55.528Z,22.51
2023-04-02T03:17:55.242Z,22.51
2023-04-02T03:21:55.562Z,22.51
2023-04-02T03:25:55.143Z,22.51
2023-04-02T03:29:55.095Z,22.50
2023-04-02T03:33:55.090Z,22.51
2023-04-02T03:37:55.060Z,22.50
2023-04-02T03:41:55.014Z,22.49
2023-04-02T03:45:54.980Z,22.50
2023-04-02T03:49:54.915Z,22.50
2023-04-02T03:53:55.072Z,22.49
2023-04-02T03:57:54.855Z,22.49
2023-04-02T04:01:55.134Z,22.49
2023-04-02T04:05:55.064Z,22.48
2023-04-02T04:09:54.860Z,22.49
2023-04-02T04:13:55.068Z,22.48
2023-04-02T04:17:55.283Z,22.48
2023-04-02T04:21:55.117Z,22.48
2023-04-02T04:25:55.144Z,22.48
2023-04-02T04:29:55.589Z,22.47
2023-04-02T04:33:55.230Z,22.47
2023-04-02T04:37:55.586Z,22.47
2023-04-02T04:41:55.387Z,22.47
2023-04-02T04:45:55.470Z,22.47
2023-04-02T04:49:55.576Z,22.46
2023-04-02T04:53:55.629Z,22.46
2023-04-02T04:57:56.097Z,22.46
2023-04-02T05:01:55.774Z,22.46
2023-04-02T05:05:55.868Z,22.46
2023-04-02T05:09:55.960Z,22.46
2023-04-02T05:13:56.104Z,22.46
2023-04-02T05:17:56.067Z,22.46
2023-04-02T05:21:56.609Z,22.46
2023-04-02T05:25:56.215Z,22.46
2023-04-02T05:29:56.252Z,22.46
2023-04-02T05:33:56.602Z,22.47
2023-04-02T05:37:56.583Z,22.48
2023-04-02T05:41:56.560Z,22.48
2023-04-02T05:45:56.562Z,22.48
2023-04-02T05:49:56.630Z,22.49
2023-04-02T05:53:57.160Z,22.49
2023-04-02T05:58:21.383Z,22.50
2023-04-02T06:01:57.727Z,22.50
2023-04-02T06:05:56.698Z,22.51
2023-04-02T06:09:57.118Z,22.51
2023-04-02T06:13:56.620Z,22.52
2023-04-02T06:17:56.636Z,22.52
2023-04-02T06:21:56.515Z,22.54
2023-04-02T06:25:56.521Z,22.55
2023-04-02T06:29:56.629Z,22.57
2023-04-02T06:33:56.666Z,22.60
2023-04-02T06:37:56.688Z,22.62
2023-04-02T06:41:56.698Z,22.65
2023-04-02T06:45:57.157Z,22.68
2023-04-02T06:49:56.732Z,22.72
2023-04-02T06:53:56.726Z,22.78
2023-04-02T06:57:57.144Z,22.83
2023-04-02T07:01:56.803Z,22.90
2023-04-02T07:05:57.152Z,22.95
2023-04-02T07:09:56.703Z,23.00
2023-04-02T07:13:57.130Z,23.04
2023-04-02T07:17:57.021Z,23.07
2023-04-02T07:21:57.062Z,23.11
2023-04-02T07:25:57.155Z,23.18
2023-04-02T07:29:56.985Z,23.29
2023-04-02T07:33:57.125Z,23.32
2023-04-02T07:37:56.933Z,23.41
2023-04-02T07:41:57.162Z,23.62
2023-04-02T07:45:56.858Z,24.03
2023-04-02T07:49:56.788Z,25.92
2023-04-02T07:53:56.774Z,29.89
2023-04-02T07:57:56.716Z,31.68
2023-04-02T08:01:56.741Z,32.72
2023-04-02T08:05:57.166Z,31.32
2023-04-02T08:09:56.647Z,32.45
2023-04-02T08:13:56.684Z,32.32
2023-04-02T08:17:56.851Z,31.28
2023-04-02T08:21:57.162Z,27.79
2023-04-02T08:25:57.173Z,26.33
2023-04-02T08:29:57.209Z,25.77
2023-04-02T08:33:57.666Z,25.30
2023-04-02T08:37:57.430Z,25.03
2023-04-02T08:41:57.684Z,24.81
2023-04-02T08:45:57.694Z,24.66
2023-04-02T08:49:58.236Z,24.49
2023-04-02T08:53:57.851Z,24.45
2023-04-02T08:57:58.004Z,24.46
2023-04-02T09:01:58.277Z,24.42
2023-04-02T09:05:58.689Z,24.43
2023-04-02T09:09:58.568Z,24.42
2023-04-02T09:13:58.738Z,24.38
2023-04-02T09:17:59.667Z,24.40
2023-04-02T09:21:59.200Z,24.39
2023-04-02T09:26:04.525Z,24.43
2023-04-02T09:30:00.347Z,24.46
2023-04-02T09:33:59.443Z,24.50
2023-04-02T09:37:59.649Z,24.55
2023-04-02T09:42:05.559Z,24.52
2023-04-02T09:46:01.203Z,24.46
2023-04-02T09:50:00.013Z,24.40
2023-04-02T09:54:00.210Z,24.32
2023-04-02T09:58:02.039Z,24.31
2023-04-02T10:02:00.642Z,24.24
2023-04-02T10:06:00.589Z,24.21
2023-04-02T10:10:00.562Z,24.20
2023-04-02T10:14:00.546Z,24.16
2023-04-02T10:18:00.758Z,24.09
2023-04-02T10:22:00.777Z,24.02
2023-04-02T10:26:00.685Z,23.98
2023-04-02T10:30:00.406Z,23.95
2023-04-02T10:34:00.386Z,23.95
2023-04-02T10:38:00.321Z,23.96
2023-04-02T10:42:00.722Z,23.92
2023-04-02T10:46:00.788Z,23.90
2023-04-02T10:50:00.229Z,23.87
2023-04-02T10:54:00.180Z,23.83
2023-04-02T10:58:00.235Z,23.81
2023-04-02T11:02:00.180Z,23.76
2023-04-02T11:06:00.230Z,23.72
2023-04-02T11:10:00.099Z,23.67
2023-04-02T11:14:00.259Z,23.64
2023-04-02T11:18:00.024Z,23.61
2023-04-02T11:22:01.478Z,23.57
2023-04-02T11:26:00.244Z,23.54
2023-04-02T11:29:59.873Z,23.51
2023-04-02T11:34:00.282Z,23.49
2023-04-02T11:37:59.786Z,23.47
2023-04-02T11:41:59.744Z,23.45
2023-04-02T11:45:59.709Z,23.45
2023-04-02T11:49:59.670Z,23.44
2023-04-02T11:53:59.662Z,23.44
2023-04-02T11:57:59.596Z,23.43
2023-04-02T12:01:59.608Z,23.43
2023-04-02T12:06:00.042Z,23.42
2023-04-02T12:09:59.504Z,23.40
2023-04-02T12:13:59.449Z,23.41
2023-04-02T12:17:59.801Z,23.39
2023-04-02T12:21:59.392Z,23.37
2023-04-02T12:25:59.775Z,23.37
2023-04-02T12:29:59.486Z,23.35
2023-04-02T12:33:59.691Z,23.33
2023-04-02T12:38:00.269Z,23.32
2023-04-02T12:41:59.956Z,23.31
2023-04-02T12:46:00.313Z,23.30
2023-04-02T12:50:00.244Z,23.29
2023-04-02T12:54:00.396Z,23.28
2023-04-02T12:58:00.791Z,23.27
2023-04-02T13:02:08.325Z,23.26
2023-04-02T13:06:00.734Z,23.24
2023-04-02T13:10:00.703Z,23.22
2023-04-02T13:14:00.801Z,23.21
2023-04-02T13:18:00.811Z,23.21
2023-04-02T13:22:00.748Z,23.22
2023-04-02T13:26:00.998Z,23.21
2023-04-02T13:30:01.315Z,23.20
2023-04-02T13:34:01.383Z,23.19
2023-04-02T13:38:01.850Z,23.19
2023-04-02T13:42:01.776Z,23.18
2023-04-02T13:46:02.006Z,23.17
2023-04-02T13:50:02.177Z,23.17
2023-04-02T13:54:02.807Z,23.16
2023-04-02T13:58:02.845Z,23.16
2023-04-02T14:02:02.883Z,23.15
2023-04-02T14:06:03.045Z,23.16
2023-04-02T14:10:03.306Z,23.14
2023-04-02T14:14:03.431Z,23.14
2023-04-02T14:18:03.865Z,23.12
2023-04-02T14:22:03.897Z,23.12
2023-04-02T14:26:04.138Z,23.12
2023-04-02T14:30:04.354Z,23.10
2023-04-02T14:34:04.016Z,23.10
2023-04-02T14:38:03.969Z,23.10
2023-04-02T14:42:03.971Z,23.09
2023-04-02T14:46:03.974Z,23.08
2023-04-02T14:50:04.354Z,23.07
2023-04-02T14:54:03.865Z,23.06
2023-04-02T14:58:03.841Z,23.04
2023-04-02T15:02:03.829Z,23.01
2023-04-02T15:06:03.975Z,23.00
2023-04-02T15:10:04.358Z,22.98
2023-04-02T15:14:03.961Z,22.97
2023-04-02T15:18:04.404Z,22.97
2023-04-02T15:22:08.117Z,22.96
2023-04-02T15:26:04.859Z,22.95
2023-04-02T15:30:03.849Z,22.95
2023-04-02T15:34:03.962Z,22.95
2023-04-02T15:38:04.367Z,22.96
2023-04-02T15:42:04.313Z,22.95
2023-04-02T15:46:04.927Z,22.94
2023-04-02T15:50:04.859Z,22.94
2023-04-02T15:54:04.887Z,22.94
2023-04-02T15:58:04.840Z,22.94
2023-04-02T16:02:04.833Z,22.93
2023-04-02T16:06:04.842Z,22.93
2023-04-02T16:10:04.767Z,22.92
2023-04-02T16:14:04.733Z,22.92
2023-04-02T16:18:04.796Z,22.90
2023-04-02T16:22:04.892Z,22.89
2023-04-02T16:26:04.608Z,22.88
2023-04-02T16:30:04.855Z,22.87
2023-04-02T16:34:04.889Z,22.86
2023-04-02T16:38:04.599Z,22.85
2023-04-02T16:42:04.775Z,22.84
2023-04-02T16:46:05.473Z,22.84
2023-04-02T16:50:05.149Z,22.83
2023-04-02T16:54:05.403Z,22.82
2023-04-02T16:58:05.370Z,22.82
2023-04-02T17:02:05.492Z,22.82
2023-04-02T17:06:05.921Z,22.82
2023-04-02T17:10:05.640Z,22.81
2023-04-02T17:14:05.679Z,22.80
2023-04-02T17:18:05.776Z,22.80
2023-04-02T17:22:05.918Z,22.79
2023-04-02T17:26:05.917Z,22.79
2023-04-02T17:30:05.758Z,22.78
2023-04-02T17:34:05.757Z,22.78
2023-04-02T17:38:05.929Z,22.77
2023-04-02T17:42:05.813Z,22.76
2023-04-02T17:46:05.938Z,22.77
2023-04-02T17:50:05.917Z,22.75
2023-04-02T17:54:05.728Z,22.75
2023-04-02T17:58:05.928Z,22.75
2023-04-02T18:02:05.784Z,22.74
2023-04-02T18:06:05.915Z,22.74
2023-04-02T18:10:05.717Z,22.74
2023-04-02T18:14:05.695Z,22.73
2023-04-02T18:18:05.922Z,22.72
2023-04-02T18:22:05.699Z,22.71
2023-04-02T18:26:05.926Z,22.71
2023-04-02T18:30:05.664Z,22.70
2023-04-02T18:34:05.698Z,22.71
2023-04-02T18:38:05.891Z,22.70
2023-04-02T18:42:05.658Z,22.70
2023-04-02T18:46:05.993Z,22.69
2023-04-02T18:50:05.632Z,22.69
2023-04-02T18:54:05.935Z,22.69
2023-04-02T18:58:05.929Z,22.69
2023-04-02T19:02:05.645Z,22.68
2023-04-02T19:06:05.929Z,22.67
2023-04-02T19:10:05.667Z,22.67
2023-04-02T19:14:05.943Z,22.67
2023-04-02T19:18:06.003Z,22.67
2023-04-02T19:22:05.969Z,22.65
2023-04-02T19:26:05.930Z,22.65
2023-04-02T19:30:05.729Z,22.64
2023-04-02T19:34:05.944Z,22.64
2023-04-02T19:38:05.708Z,22.64
2023-04-02T19:42:05.948Z,22.64
2023-04-02T19:46:05.961Z,22.63
2023-04-02T19:50:05.720Z,22.64
2023-04-02T19:54:05.761Z,22.63
2023-04-02T19:58:18.760Z,22.63
2023-04-02T20:02:06.741Z,22.62
2023-04-02T20:06:05.731Z,22.62
2023-04-02T20:10:05.692Z,22.62
2023-04-02T20:14:05.614Z,22.61
2023-04-02T20:18:06.007Z,22.61
2023-04-02T20:22:05.971Z,22.60
2023-04-02T20:26:05.972Z,22.60
2023-04-02T20:30:05.667Z,22.60
2023-04-02T20:34:06.109Z,22.59
2023-04-02T20:38:05.758Z,22.59
2023-04-02T20:42:05.984Z,22.59
2023-04-02T20:46:06.041Z,22.58
2023-04-02T20:50:05.982Z,22.58
2023-04-02T20:54:05.972Z,22.58
2023-04-02T20:58:06.496Z,22.57
2023-04-02T21:02:06.087Z,22.57
2023-04-02T21:06:06.142Z,22.57
2023-04-02T21:10:06.481Z,22.56
2023-04-02T21:14:06.325Z,22.56
2023-04-02T21:18:06.543Z,22.56
2023-04-02T21:22:06.987Z,22.56
2023-04-02T21:26:06.593Z,22.55
2023-04-02T21:30:06.694Z,22.54
2023-04-02T21:34:07.043Z,22.55
2023-04-02T21:38:06.847Z,22.54
2023-04-02T21:42:07.023Z,22.55
2023-04-02T21:46:07.009Z,22.53
2023-04-02T21:50:07.141Z,22.54
2023-04-02T21:54:07.504Z,22.53
2023-04-02T21:58:07.268Z,22.53
2023-04-02T22:02:07.347Z,22.53
2023-04-02T22:06:07.469Z,22.52
2023-04-02T22:10:07.565Z,22.52
2023-04-02T22:14:08.027Z,22.52
2023-04-02T22:18:07.982Z,22.51
2023-04-02T22:22:08.008Z,22.51
2023-04-02T22:26:07.942Z,22.51
2023-04-02T22:30:07.996Z,22.51
2023-04-02T22:34:08.508Z,22.51
2023-04-02T22:38:08.180Z,22.50
2023-04-02T22:42:08.518Z,22.50
2023-04-02T22:46:08.468Z,22.50
2023-04-02T22:50:08.562Z,22.50
2023-04-02T22:54:08.608Z,22.49
2023-04-02T22:58:09.048Z,22.49
2023-04-02T23:02:08.741Z,22.48
2023-04-02T23:06:09.002Z,22.49
2023-04-02T23:10:08.936Z,22.47
2023-04-02T23:14:09.003Z,22.48
2023-04-02T23:18:09.094Z,22.48
2023-04-02T23:22:09.214Z,22.47
2023-04-02T23:26:09.510Z,22.47
2023-04-02T23:30:09.372Z,22.46
2023-04-02T23:34:09.541Z,22.46
2023-04-02T23:38:10.050Z,22.46
2023-04-02T23:42:09.664Z,22.46
2023-04-02T23:46:10.147Z,22.45
2023-04-02T23:50:10.020Z,22.46
2023-04-02T23:54:09.982Z,22.45
2023-04-02T23:58:10.531Z,22.45
